createdAt,value
2023-05-12T00:01:50.329Z,99816.75
2023-05-12T00:04:17.471Z,99816.75
2023-05-12T00:06:44.513Z,99813.66
2023-05-12T00:09:11.601Z,99815.34
2023-05-12T00:11:38.630Z,99817.84
2023-05-12T00:14:06.661Z,99806.72
2023-05-12T00:16:33.770Z,99803.84
2023-05-12T00:19:01.498Z,99803.41
2023-05-12T00:21:28.599Z,99812.66
2023-05-12T00:23:55.949Z,99807.72
2023-05-12T00:26:22.959Z,99809.72
2023-05-12T00:28:50.187Z,99805.81
2023-05-12T00:31:17.502Z,99791.75
2023-05-12T00:33:44.584Z,99798.41
2023-05-12T00:36:11.618Z,99800.25
2023-05-12T00:38:38.963Z,99802.06
2023-05-12T00:41:06.038Z,99803.13
2023-05-12T00:43:33.795Z,99789.22
2023-05-12T00:46:02.924Z,99790.47
2023-05-12T00:48:29.906Z,99796.28
2023-05-12T00:50:57.942Z,99794.22
2023-05-12T00:53:29.041Z,99800.41
2023-05-12T00:55:59.897Z,99799.59
2023-05-12T00:58:27.548Z,99798.31
2023-05-12T01:00:54.846Z,99788.00
2023-05-12T01:03:22.295Z,99792.94
2023-05-12T01:05:55.300Z,99799.34
2023-05-12T01:08:23.516Z,99787.59
2023-05-12T01:10:51.223Z,99789.91
2023-05-12T01:13:19.539Z,99798.59
2023-05-12T01:15:48.612Z,99802.28
2023-05-12T01:18:16.401Z,99788.88
2023-05-12T01:20:44.803Z,99788.88
2023-05-12T01:23:14.450Z,99799.88
2023-05-12T01:25:47.547Z,99807.13
2023-05-12T01:28:15.961Z,99801.31
2023-05-12T01:30:44.115Z,99799.03
2023-05-12T01:33:13.593Z,99800.28
2023-05-12T01:35:46.429Z,99802.09
2023-05-12T01:38:13.679Z,99802.50
2023-05-12T01:40:41.702Z,99808.28
2023-05-12T01:43:09.089Z,99798.13
2023-05-12T01:45:36.700Z,99803.91
2023-05-12T01:48:04.164Z,99797.09
2023-05-12T01:50:31.387Z,99801.88
2023-05-12T01:52:59.553Z,99801.69
2023-05-12T01:55:27.785Z,99802.69
2023-05-12T01:57:58.674Z,99807.66
2023-05-12T02:00:27.364Z,99784.69
2023-05-12T02:02:57.479Z,99806.97
2023-05-12T02:05:24.775Z,99806.72
2023-05-12T02:07:52.780Z,99805.25
2023-05-12T02:10:20.816Z,99811.66
2023-05-12T02:12:49.360Z,99795.75
2023-05-12T02:15:17.776Z,99802.41
2023-05-12T02:17:47.285Z,99812.31
2023-05-12T02:20:17.384Z,99812.34
2023-05-12T02:22:44.678Z,99805.94
2023-05-12T02:25:12.477Z,99805.13
2023-05-12T02:27:40.059Z,99807.38
2023-05-12T02:30:08.546Z,99808.44
2023-05-12T02:32:36.660Z,99801.47
2023-05-12T02:35:05.151Z,99809.72
2023-05-12T02:37:32.480Z,99802.91
2023-05-12T02:39:59.806Z,99805.81
2023-05-12T02:42:31.131Z,99804.78
2023-05-12T02:44:58.635Z,99803.97
2023-05-12T02:47:25.829Z,99810.78
2023-05-12T02:49:55.664Z,99807.47
2023-05-12T02:52:22.812Z,99809.34
2023-05-12T02:54:50.181Z,99805.88
2023-05-12T02:57:17.306Z,99798.03
2023-05-12T02:59:44.474Z,99807.53
2023-05-12T03:02:11.858Z,99814.97
2023-05-12T03:04:39.457Z,99813.28
2023-05-12T03:07:06.457Z,99812.50
2023-05-12T03:09:34.486Z,99805.00
2023-05-12T03:12:01.576Z,99813.47
2023-05-12T03:14:28.809Z,99816.16
2023-05-12T03:16:55.783Z,99819.47
2023-05-12T03:19:22.764Z,99812.81
2023-05-12T03:21:50.419Z,99815.88
2023-05-12T03:24:17.480Z,99811.91
2023-05-12T03:26:44.562Z,99813.28
2023-05-12T03:29:11.555Z,99816.13
2023-05-12T03:31:38.599Z,99811.28
2023-05-12T03:34:05.969Z,99809.69
2023-05-12T03:36:32.885Z,99816.00
2023-05-12T03:38:59.905Z,99814.75
2023-05-12T03:41:26.894Z,99811.41
2023-05-12T03:43:53.980Z,99801.88
2023-05-12T03:46:21.303Z,99808.50
2023-05-12T03:48:48.307Z,99807.72
2023-05-12T03:51:15.344Z,99810.28
2023-05-12T03:53:46.665Z,99786.84
2023-05-12T03:56:15.709Z,99807.28
2023-05-12T03:58:43.549Z,99809.84
2023-05-12T04:01:10.582Z,99807.53
2023-05-12T04:03:37.792Z,99808.84
2023-05-12T04:06:23.788Z,99804.44
2023-05-12T04:08:50.789Z,99805.25
2023-05-12T04:11:17.858Z,99804.53
2023-05-12T04:13:44.927Z,99801.56
2023-05-12T04:16:13.762Z,99796.38
2023-05-12T04:18:40.979Z,99805.19
2023-05-12T04:21:08.466Z,99801.28
2023-05-12T04:23:54.284Z,99800.56
2023-05-12T04:26:24.451Z,99789.03
2023-05-12T04:28:52.057Z,99804.09
2023-05-12T04:31:19.561Z,99799.84
2023-05-12T04:33:48.244Z,99799.47
2023-05-12T04:36:15.740Z,99797.53
2023-05-12T04:38:43.092Z,99803.59
2023-05-12T04:41:11.021Z,99805.09
2023-05-12T04:46:08.425Z,99795.75
2023-05-12T04:48:54.255Z,99792.44
2023-05-12T04:51:21.269Z,99792.91
2023-05-12T04:53:48.364Z,99785.16
2023-05-12T04:56:15.707Z,99791.63
2023-05-12T04:58:45.185Z,99799.03
2023-05-12T05:01:31.228Z,99796.75
2023-05-12T05:03:58.628Z,99789.19
2023-05-12T05:06:25.820Z,99781.63
2023-05-12T05:08:53.778Z,99791.44
2023-05-12T05:11:22.467Z,99792.47
2023-05-12T05:13:50.450Z,99791.16
2023-05-12T05:16:18.237Z,99802.00
2023-05-12T05:18:48.008Z,99797.78
2023-05-12T05:21:15.458Z,99803.44
2023-05-12T05:23:42.923Z,99799.81
2023-05-12T05:26:10.376Z,99795.31
2023-05-12T05:28:41.783Z,99796.06
2023-05-12T05:31:08.951Z,99781.97
2023-05-12T05:33:36.006Z,99794.16
2023-05-12T05:36:06.970Z,99795.19
2023-05-12T05:38:37.878Z,99796.97
2023-05-12T05:41:05.906Z,99780.34
2023-05-12T05:43:41.599Z,99779.63
2023-05-12T05:46:11.567Z,99771.97
2023-05-12T05:48:38.926Z,99784.47
2023-05-12T05:51:11.546Z,99795.41
2023-05-12T05:53:42.494Z,99786.72
2023-05-12T05:56:13.618Z,99789.00
2023-05-12T05:58:40.794Z,99780.13
2023-05-12T06:01:08.000Z,99793.13
2023-05-12T06:03:36.595Z,99790.72
2023-05-12T06:06:07.303Z,99786.91
2023-05-12T06:08:34.595Z,99794.03
2023-05-12T06:11:03.507Z,99792.34
2023-05-12T06:13:32.485Z,99784.72
2023-05-12T06:16:01.109Z,99787.31
2023-05-12T06:18:28.456Z,99785.16
2023-05-12T06:20:55.941Z,99779.25
2023-05-12T06:23:23.043Z,99789.69
2023-05-12T06:25:50.722Z,99786.53
2023-05-12T06:28:18.198Z,99783.84
2023-05-12T06:30:49.082Z,99776.19
2023-05-12T06:33:18.081Z,99784.94
2023-05-12T06:35:45.197Z,99784.13
2023-05-12T06:38:12.781Z,99781.66
2023-05-12T06:40:46.291Z,99775.19
2023-05-12T06:43:14.773Z,99775.84
2023-05-12T06:45:52.945Z,99771.19
2023-05-12T06:48:20.166Z,99775.34
2023-05-12T06:50:47.242Z,99769.66
2023-05-12T06:53:17.872Z,99771.56
2023-05-12T06:55:47.891Z,99761.75
2023-05-12T06:58:22.367Z,99774.84
2023-05-12T07:00:52.270Z,99769.41
2023-05-12T07:03:22.058Z,99754.13
2023-05-12T07:05:49.542Z,99761.50
2023-05-12T07:08:17.158Z,99765.06
2023-05-12T07:10:45.218Z,99770.25
2023-05-12T07:13:12.359Z,99767.81
2023-05-12T07:15:39.540Z,99764.50
2023-05-12T07:18:06.967Z,99773.53
2023-05-12T07:20:34.148Z,99775.69
2023-05-12T07:23:01.232Z,99756.28
2023-05-12T07:25:28.522Z,99760.06
2023-05-12T07:27:56.240Z,99769.00
2023-05-12T07:30:23.267Z,99768.66
2023-05-12T07:32:50.516Z,99762.59
2023-05-12T07:35:18.249Z,99756.03
2023-05-12T07:37:45.615Z,99755.31
2023-05-12T07:40:13.044Z,99756.44
2023-05-12T07:42:40.105Z,99757.56
2023-05-12T07:45:07.860Z,99755.25
2023-05-12T07:47:35.028Z,99736.00
2023-05-12T07:50:02.328Z,99749.34
2023-05-12T07:52:31.862Z,99745.31
2023-05-12T07:54:58.969Z,99749.56
2023-05-12T07:57:25.998Z,99759.59
2023-05-12T07:59:53.008Z,99753.66
2023-05-12T08:02:22.269Z,99761.03
2023-05-12T08:04:50.873Z,99743.25
2023-05-12T08:07:18.318Z,99760.50
2023-05-12T08:09:45.391Z,99748.75
2023-05-12T08:12:12.522Z,99742.59
2023-05-12T08:14:39.644Z,99755.84
2023-05-12T08:17:11.834Z,99750.28
2023-05-12T08:19:39.057Z,99759.00
2023-05-12T08:22:09.154Z,99754.63
2023-05-12T08:24:36.894Z,99749.78
2023-05-12T08:27:04.200Z,99748.41
2023-05-12T08:29:31.337Z,99746.81
2023-05-12T08:31:58.641Z,99732.97
2023-05-12T08:34:25.941Z,99731.88
2023-05-12T08:36:53.837Z,99734.44
2023-05-12T08:39:21.522Z,99734.19
2023-05-12T08:41:48.594Z,99739.31
2023-05-12T08:44:16.116Z,99736.94
2023-05-12T08:46:43.453Z,99732.75
2023-05-12T08:49:16.597Z,99724.94
2023-05-12T08:51:57.214Z,99727.69
2023-05-12T08:54:33.463Z,99732.63
2023-05-12T08:59:35.374Z,99719.00
2023-05-12T09:02:04.543Z,99711.81
2023-05-12T09:04:34.515Z,99716.50
2023-05-12T09:07:01.694Z,99708.09
2023-05-12T09:09:30.237Z,99712.53
2023-05-12T09:11:59.461Z,99712.75
2023-05-12T09:14:27.505Z,99706.00
2023-05-12T09:17:00.416Z,99715.16
2023-05-12T09:19:28.457Z,99709.09
2023-05-12T09:21:58.709Z,99698.19
2023-05-12T09:24:36.603Z,99705.41
2023-05-12T09:27:04.587Z,99694.72
2023-05-12T09:29:45.143Z,99705.16
2023-05-12T09:32:19.230Z,99696.84
2023-05-12T09:34:46.388Z,99699.03
2023-05-12T09:37:15.502Z,99702.53
2023-05-12T09:39:44.484Z,99692.56
2023-05-12T09:42:12.801Z,99691.06
2023-05-12T09:44:41.312Z,99682.94
2023-05-12T09:47:10.612Z,99683.56
2023-05-12T09:49:38.500Z,99683.53
2023-05-12T09:52:06.286Z,99692.75
2023-05-12T09:54:34.659Z,99688.53
2023-05-12T09:57:11.094Z,99668.16
2023-05-12T09:59:39.692Z,99677.59
2023-05-12T10:02:09.557Z,99678.84
2023-05-12T10:04:45.804Z,99683.66
2023-05-12T10:07:13.654Z,99684.56
2023-05-12T10:09:42.539Z,99675.81
2023-05-12T10:12:09.931Z,99678.38
2023-05-12T10:14:38.372Z,99676.75
2023-05-12T10:17:05.863Z,99679.88
2023-05-12T10:19:33.112Z,99668.84
2023-05-12T10:22:00.870Z,99661.06
2023-05-12T10:24:33.306Z,99681.28
2023-05-12T10:27:01.553Z,99670.44
2023-05-12T10:29:30.574Z,99672.75
2023-05-12T10:31:58.216Z,99675.56
2023-05-12T10:34:31.301Z,99650.78
2023-05-12T10:37:09.225Z,99671.69
2023-05-12T10:39:38.606Z,99667.88
2023-05-12T10:42:11.511Z,99669.00
2023-05-12T10:44:52.105Z,99655.22
2023-05-12T10:47:19.747Z,99675.19
2023-05-12T10:49:46.949Z,99665.25
2023-05-12T10:52:14.131Z,99657.78
2023-05-12T10:54:45.551Z,99665.31
2023-05-12T10:57:17.896Z,99676.97
2023-05-12T10:59:58.801Z,99666.06
2023-05-12T11:02:34.453Z,99670.72
2023-05-12T11:05:13.126Z,99670.03
2023-05-12T11:07:41.844Z,99668.88
2023-05-12T11:10:10.585Z,99668.31
2023-05-12T11:12:38.129Z,99673.81
2023-05-12T11:15:06.920Z,99684.16
2023-05-12T11:17:34.503Z,99680.19
2023-05-12T11:20:04.550Z,99680.91
2023-05-12T11:22:34.043Z,99685.00
2023-05-12T11:25:10.200Z,99668.09
2023-05-12T11:27:42.648Z,99681.81
2023-05-12T11:30:11.251Z,99676.84
2023-05-12T11:32:41.695Z,99679.50
2023-05-12T11:35:16.615Z,99675.13
2023-05-12T11:37:46.900Z,99674.41
2023-05-12T11:40:22.016Z,99672.88
2023-05-12T11:42:56.050Z,99660.25
2023-05-12T11:45:49.004Z,99674.63
2023-05-12T11:48:18.929Z,99660.88
2023-05-12T11:51:18.696Z,99663.41
2023-05-12T11:53:46.874Z,99652.09
2023-05-12T11:56:22.283Z,99660.25
2023-05-12T11:58:55.100Z,99649.25
2023-05-12T12:01:23.279Z,99660.09
2023-05-12T12:03:52.212Z,99652.00
2023-05-12T12:06:25.387Z,99648.00
2023-05-12T12:08:52.616Z,99652.03
2023-05-12T12:11:21.461Z,99656.47
2023-05-12T12:13:56.455Z,99652.16
2023-05-12T12:16:26.614Z,99653.38
2023-05-12T12:18:57.278Z,99618.63
2023-05-12T12:21:27.426Z,99636.72
2023-05-12T12:23:59.968Z,99636.56
2023-05-12T12:26:28.024Z,99634.97
2023-05-12T12:28:55.123Z,99620.91
2023-05-12T12:31:22.336Z,99618.72
2023-05-12T12:33:49.540Z,99617.06
2023-05-12T12:36:16.855Z,99623.88
2023-05-12T12:38:43.976Z,99623.22
2023-05-12T12:41:11.079Z,99634.09
2023-05-12T12:43:38.541Z,99622.81
2023-05-12T12:46:06.249Z,99627.84
2023-05-12T12:48:37.097Z,99617.03
2023-05-12T12:51:04.406Z,99608.16
2023-05-12T12:53:31.812Z,99617.97
2023-05-12T12:56:03.116Z,99595.75
2023-05-12T12:58:31.361Z,99615.88
2023-05-12T13:01:01.759Z,99607.66
2023-05-12T13:03:32.233Z,99618.44
2023-05-12T13:06:02.081Z,99619.94
2023-05-12T13:08:32.254Z,99591.97
2023-05-12T13:11:00.508Z,99579.69
2023-05-12T13:13:27.927Z,99597.31
2023-05-12T13:15:55.289Z,99597.63
2023-05-12T13:18:25.417Z,99607.81
2023-05-12T13:20:53.073Z,99619.69
2023-05-12T13:23:20.628Z,99596.69
2023-05-12T13:25:52.924Z,99582.59
2023-05-12T13:28:19.936Z,99596.59
2023-05-12T13:30:47.173Z,99603.53
2023-05-12T13:33:17.497Z,99591.97
2023-05-12T13:35:55.273Z,99590.97
2023-05-12T13:38:23.325Z,99588.91
2023-05-12T13:40:51.291Z,99590.53
2023-05-12T13:43:18.613Z,99590.28
2023-05-12T13:45:45.928Z,99595.00
2023-05-12T13:48:18.157Z,99591.53
2023-05-12T13:50:49.151Z,99603.34
2023-05-12T13:53:16.452Z,99580.91
2023-05-12T13:55:44.693Z,99593.84
2023-05-12T13:58:14.277Z,99584.38
2023-05-12T14:00:41.598Z,99580.56
2023-05-12T14:03:08.843Z,99579.41
2023-05-12T14:05:36.351Z,99589.44
2023-05-12T14:08:04.014Z,99582.06
2023-05-12T14:10:32.690Z,99581.34
2023-05-12T14:12:59.999Z,99585.16
2023-05-12T14:15:40.141Z,99588.88
2023-05-12T14:18:12.621Z,99564.84
2023-05-12T14:20:40.882Z,99576.88
2023-05-12T14:23:08.013Z,99563.31
2023-05-12T14:25:35.058Z,99582.13
2023-05-12T14:28:02.290Z,99571.19
2023-05-12T14:30:30.174Z,99551.22
2023-05-12T14:32:57.369Z,99560.66
2023-05-12T14:35:27.804Z,99556.34
2023-05-12T14:37:55.759Z,99557.09
2023-05-12T14:40:23.583Z,99574.03
2023-05-12T14:42:51.142Z,99566.78
2023-05-12T14:45:18.500Z,99560.25
2023-05-12T14:47:45.785Z,99558.47
2023-05-12T14:50:13.754Z,99571.81
2023-05-12T14:52:40.883Z,99557.06
2023-05-12T14:55:13.718Z,99567.69
2023-05-12T14:57:48.113Z,99562.13
2023-05-12T15:00:18.571Z,99554.31
2023-05-12T15:02:45.767Z,99551.13
2023-05-12T15:05:17.167Z,99556.06
2023-05-12T15:07:44.435Z,99563.69
2023-05-12T15:10:11.754Z,99558.44
2023-05-12T15:12:39.044Z,99540.16
2023-05-12T15:15:14.035Z,99559.94
2023-05-12T15:17:41.037Z,99556.75
2023-05-12T15:20:10.068Z,99551.03
2023-05-12T15:22:46.602Z,99558.41
2023-05-12T15:25:16.867Z,99541.91
2023-05-12T15:27:44.116Z,99555.41
2023-05-12T15:30:11.833Z,99556.53
2023-05-12T15:32:41.296Z,99566.69
2023-05-12T15:35:09.928Z,99550.72
2023-05-12T15:37:37.001Z,99555.72
2023-05-12T15:40:04.319Z,99552.75
2023-05-12T15:42:33.083Z,99552.78
2023-05-12T15:45:01.236Z,99549.44
2023-05-12T15:47:28.717Z,99554.97
2023-05-12T15:49:55.841Z,99552.25
2023-05-12T15:52:23.111Z,99558.91
2023-05-12T15:54:50.235Z,99564.88
2023-05-12T15:57:17.526Z,99554.34
2023-05-12T15:59:47.913Z,99539.41
2023-05-12T16:02:15.870Z,99548.56
2023-05-12T16:04:42.946Z,99556.19
2023-05-12T16:07:10.246Z,99546.41
2023-05-12T16:09:37.461Z,99539.44
2023-05-12T16:12:05.923Z,99551.41
2023-05-12T16:17:15.636Z,99538.09
2023-05-12T16:19:43.998Z,99541.44
2023-05-12T16:22:11.231Z,99557.00
2023-05-12T16:24:38.366Z,99543.06
2023-05-12T16:27:05.736Z,99556.41
2023-05-12T16:29:32.760Z,99559.78
2023-05-12T16:31:59.840Z,99561.28
2023-05-12T16:34:27.578Z,99552.53
2023-05-12T16:36:57.624Z,99562.63
2023-05-12T16:39:24.748Z,99559.59
2023-05-12T16:41:51.809Z,99548.38
2023-05-12T16:44:21.900Z,99562.19
2023-05-12T16:46:49.866Z,99557.69
2023-05-12T16:49:26.502Z,99560.06
2023-05-12T16:51:53.563Z,99571.13
2023-05-12T16:54:20.693Z,99560.84
2023-05-12T16:56:48.592Z,99564.56
2023-05-12T16:59:15.962Z,99564.00
2023-05-12T17:01:43.122Z,99577.53
2023-05-12T17:04:12.537Z,99554.09
2023-05-12T17:06:39.688Z,99575.81
2023-05-12T17:09:06.649Z,99561.19
2023-05-12T17:11:33.678Z,99577.03
2023-05-12T17:14:01.116Z,99576.06
2023-05-12T17:16:28.799Z,99567.59
2023-05-12T17:21:31.960Z,99576.28
2023-05-12T17:24:04.070Z,99570.69
2023-05-12T17:26:31.528Z,99578.13
2023-05-12T17:28:58.513Z,99571.13
2023-05-12T17:31:25.659Z,99580.72
2023-05-12T17:33:58.284Z,99576.78
2023-05-12T17:36:28.425Z,99596.69
2023-05-12T17:38:58.197Z,99579.56
2023-05-12T17:41:27.053Z,99600.69
2023-05-12T17:44:00.891Z,99603.25
2023-05-12T17:46:28.186Z,99597.28
2023-05-12T17:49:04.378Z,99596.81
2023-05-12T17:51:37.386Z,99605.31
2023-05-12T17:54:04.369Z,99593.94
2023-05-12T17:56:31.552Z,99588.56
2023-05-12T17:58:59.185Z,99598.91
2023-05-12T18:01:31.835Z,99592.94
2023-05-12T18:03:59.007Z,99612.88
2023-05-12T18:06:26.395Z,99597.91
2023-05-12T18:08:54.012Z,99609.72
2023-05-12T18:11:25.558Z,99598.28
2023-05-12T18:13:57.228Z,99597.75
2023-05-12T18:16:28.917Z,99620.94
2023-05-12T18:19:03.585Z,99613.84
2023-05-12T18:21:32.810Z,99622.59
2023-05-12T18:23:59.942Z,99614.44
2023-05-12T18:26:27.721Z,99619.34
2023-05-12T18:28:57.742Z,99609.53
2023-05-12T18:31:26.919Z,99615.53
2023-05-12T18:33:56.685Z,99598.56
2023-05-12T18:36:23.836Z,99615.97
2023-05-12T18:38:51.075Z,99620.06
2023-05-12T18:41:20.604Z,99619.75
2023-05-12T18:43:47.582Z,99612.31
2023-05-12T18:46:17.570Z,99623.69
2023-05-12T18:48:47.086Z,99597.41
2023-05-12T18:51:16.559Z,99623.84
2023-05-12T18:53:46.669Z,99621.03
2023-05-12T18:56:14.297Z,99618.25
2023-05-12T18:58:41.582Z,99628.63
2023-05-12T19:03:53.053Z,99598.41
2023-05-12T19:06:23.333Z,99609.47
2023-05-12T19:08:51.822Z,99600.91
2023-05-12T19:11:19.245Z,99623.50
2023-05-12T19:13:47.645Z,99615.56
2023-05-12T19:16:15.156Z,99620.91
2023-05-12T19:18:42.421Z,99624.72
2023-05-12T19:21:09.668Z,99618.03
2023-05-12T19:23:36.946Z,99623.13
2023-05-12T19:26:09.126Z,99613.91
2023-05-12T19:28:40.975Z,99600.97
2023-05-12T19:31:10.231Z,99607.09
2023-05-12T19:33:37.813Z,99604.66
2023-05-12T19:36:06.847Z,99613.91
2023-05-12T19:38:33.899Z,99629.59
2023-05-12T19:41:01.001Z,99624.56
2023-05-12T19:43:28.217Z,99611.94
2023-05-12T19:45:55.468Z,99630.34
2023-05-12T19:48:22.588Z,99620.41
2023-05-12T19:50:49.596Z,99628.22
2023-05-12T19:53:18.794Z,99626.97
2023-05-12T19:55:45.888Z,99633.66
2023-05-12T19:58:12.889Z,99630.25
2023-05-12T20:00:39.941Z,99624.34
2023-05-12T20:03:07.537Z,99624.50
2023-05-12T20:05:36.757Z,99627.88
2023-05-12T20:08:07.438Z,99622.03
2023-05-12T20:10:41.578Z,99623.31
2023-05-12T20:13:08.639Z,99613.84
2023-05-12T20:15:40.062Z,99621.97
2023-05-12T20:18:07.390Z,99621.56
2023-05-12T20:20:34.580Z,99624.66
2023-05-12T20:23:01.549Z,99602.72
2023-05-12T20:25:31.589Z,99621.78
2023-05-12T20:27:59.343Z,99624.38
2023-05-12T20:30:26.910Z,99626.50
2023-05-12T20:32:54.018Z,99627.44
2023-05-12T20:35:21.614Z,99629.00
2023-05-12T20:37:52.004Z,99636.44
2023-05-12T20:40:19.838Z,99632.09
2023-05-12T20:42:49.526Z,99627.78
2023-05-12T20:45:16.582Z,99620.84
2023-05-12T20:47:46.099Z,99642.22
2023-05-12T20:50:13.308Z,99639.09
2023-05-12T20:52:41.095Z,99636.13
2023-05-12T20:55:09.730Z,99630.50
2023-05-12T20:58:02.697Z,99623.78
2023-05-12T21:00:32.512Z,99640.97
2023-05-12T21:03:00.264Z,99638.97
2023-05-12T21:05:28.071Z,99637.66
2023-05-12T21:07:57.524Z,99636.47
2023-05-12T21:10:24.516Z,99640.47
2023-05-12T21:12:53.733Z,99638.25
2023-05-12T21:15:21.220Z,99642.25
2023-05-12T21:18:41.031Z,99637.66
2023-05-12T21:21:08.463Z,99616.03
2023-05-12T21:23:38.940Z,99629.53
2023-05-12T21:26:06.433Z,99625.53
2023-05-12T21:28:33.583Z,99646.78
2023-05-12T21:31:00.703Z,99629.97
2023-05-12T21:33:28.101Z,99635.16
2023-05-12T21:35:57.863Z,99645.25
2023-05-12T21:38:24.935Z,99622.53
2023-05-12T21:40:53.299Z,99618.19
2023-05-12T21:43:20.599Z,99621.38
2023-05-12T21:45:47.841Z,99631.50
2023-05-12T21:48:18.874Z,99627.63
2023-05-12T21:50:45.986Z,99618.06
2023-05-12T21:53:15.563Z,99633.72
2023-05-12T21:55:42.813Z,99634.47
2023-05-12T21:58:09.817Z,99619.31
2023-05-12T22:00:42.155Z,99618.59
2023-05-12T22:03:09.384Z,99611.72
2023-05-12T22:05:36.703Z,99634.66
2023-05-12T22:08:06.505Z,99630.16
2023-05-12T22:10:33.608Z,99638.72
2023-05-12T22:13:00.759Z,99616.69
2023-05-12T22:15:27.895Z,99620.66
2023-05-12T22:17:55.131Z,99626.72
2023-05-12T22:20:23.264Z,99622.69
2023-05-12T22:22:50.387Z,99637.97
2023-05-12T22:25:17.620Z,99633.25
2023-05-12T22:27:44.974Z,99638.03
2023-05-12T22:30:12.419Z,99633.94
2023-05-12T22:32:39.675Z,99636.31
2023-05-12T22:35:07.463Z,99633.03
2023-05-12T22:37:34.508Z,99640.31
2023-05-12T22:40:05.078Z,99641.31
2023-05-12T22:42:36.112Z,99632.72
2023-05-12T22:45:04.883Z,99639.38
2023-05-12T22:47:33.052Z,99634.03
2023-05-12T22:50:01.402Z,99643.63
2023-05-12T22:52:31.059Z,99637.41
2023-05-12T22:55:04.324Z,99643.81
2023-05-12T22:57:32.181Z,99642.69
2023-05-12T22:59:59.120Z,99649.94
2023-05-12T23:02:28.622Z,99641.47
2023-05-12T23:04:55.829Z,99644.25
2023-05-12T23:07:25.117Z,99644.47
2023-05-12T23:09:52.172Z,99642.63
2023-05-12T23:12:19.229Z,99646.00
2023-05-12T23:14:46.310Z,99642.63
2023-05-12T23:17:13.262Z,99634.63
2023-05-12T23:19:40.311Z,99641.66
2023-05-12T23:22:07.443Z,99644.31
2023-05-12T23:24:36.179Z,99627.38
2023-05-12T23:27:03.581Z,99637.47
2023-05-12T23:29:30.895Z,99646.59
2023-05-12T23:31:58.951Z,99636.34
2023-05-12T23:34:26.265Z,99640.06
2023-05-12T23:36:53.241Z,99628.31
2023-05-12T23:39:20.658Z,99638.03
2023-05-12T23:41:48.946Z,99635.63
2023-05-12T23:44:16.147Z,99638.97
2023-05-12T23:46:46.634Z,99631.81
2023-05-12T23:49:13.626Z,99634.78
2023-05-12T23:51:43.603Z,99632.81
2023-05-12T23:54:12.319Z,99633.66
2023-05-12T23:56:39.354Z,99636.19
2023-05-12T23:59:10.324Z,99643.47
